Outer Limits — WXC4854 — position and weather

sailwx.info

Track history (hours):
 
Tides and Currents Weather Stations Pressure Air Temp Water Temp Dewpoint Dewpoint Depression Visibility Wind Speed Wind Dir Waves Ship Positions

Outer Limits

Last reported at 2018-Feb-17 19:44 UTC. Time now 2018-Jul-18 18:28 UTC.
Position N 32°50' W 117°17'.
Warning: this ship's position is months out of date.

Type: Other ship. MMSI: 367169560.

Date/timePositionNaut miles runAvg speedWind from/ knotsBaromVisibWave heightAir tempDewpointWater temp
2018-Feb-17 19:44N 32°50' W 117°17'0 0.4
2018-Feb-17 19:29N 32°50' W 117°17'0 0.0
2018-Feb-17 19:00N 32°50' W 117°17'0 0.0
2018-Feb-17 18:12N 32°51' W 117°17'0 0.0
2018-Feb-17 17:57N 32°51' W 117°17'0 0.0
2018-Feb-17 17:27N 32°51' W 117°17'0 0.0
2018-Feb-17 17:00N 32°51' W 117°17'0 0.4
2018-Feb-17 16:30N 32°50' W 117°17'1 0.1
2018-Feb-16 21:12N 32°49' W 117°18'1 6.1
2018-Feb-16 20:58N 32°51' W 117°17'0 0.0
2018-Feb-16 20:30N 32°50' W 117°17'0 0.0
2018-Feb-16 20:00N 32°50' W 117°17'0 0.0
2018-Feb-16 19:30N 32°50' W 117°17'0 0.0
2018-Feb-16 18:56N 32°50' W 117°17'1 1.4
2018-Feb-16 18:30N 32°50' W 117°18'0 0.0
2018-Feb-16 17:59N 32°50' W 117°18'0 0.2
2018-Feb-16 17:30N 32°50' W 117°17'0 0.0
2018-Feb-16 17:00N 32°50' W 117°17'2 4.0
2018-Feb-16 16:30N 32°48' W 117°18'  
2018-Feb-10 23:34N 32°46' W 117°14'1 2.7
2018-Feb-10 23:18N 32°46' W 117°15'3 7.9
2018-Feb-10 22:59N 32°47' W 117°17'2 3.4
2018-Feb-10 22:30N 32°49' W 117°17'1 2.3
2018-Feb-10 21:57N 32°48' W 117°17'3 1.5
2018-Feb-10 20:00N 32°46' W 117°15'1 1.9
2018-Feb-10 19:30N 32°45' W 117°16'3 6.8
2018-Feb-10 19:00N 32°49' W 117°17'3 3.7
2018-Feb-10 18:18N 32°46' W 117°16'  
2018-Feb-07 21:52N 32°46' W 117°15'3 9.1
2018-Feb-07 21:31N 32°45' W 117°19'  
Track history (hours):
 
Tides and Currents Weather Stations Pressure Air Temp Water Temp Dewpoint Dewpoint Depression Visibility Wind Speed Wind Dir Waves Ship Positions

Outer Limits

Last reported at 2018-Feb-17 19:44 UTC. Time now 2018-Jul-18 18:28 UTC.
Position N 32°50' W 117°17'.
Warning: this ship's position is months out of date.

Type: Other ship. MMSI: 367169560.

Date/timePositionNaut miles runAvg speedWind from/ knotsBaromVisibWave heightAir tempDewpointWater temp
2018-Feb-17 19:44N 32°50' W 117°17'0 0.4
2018-Feb-17 19:29N 32°50' W 117°17'0 0.0
2018-Feb-17 19:00N 32°50' W 117°17'0 0.0
2018-Feb-17 18:12N 32°51' W 117°17'0 0.0
2018-Feb-17 17:57N 32°51' W 117°17'0 0.0
2018-Feb-17 17:27N 32°51' W 117°17'0 0.0
2018-Feb-17 17:00N 32°51' W 117°17'0 0.4
2018-Feb-17 16:30N 32°50' W 117°17'1 0.1
2018-Feb-16 21:12N 32°49' W 117°18'1 6.1
2018-Feb-16 20:58N 32°51' W 117°17'0 0.0
2018-Feb-16 20:30N 32°50' W 117°17'0 0.0
2018-Feb-16 20:00N 32°50' W 117°17'0 0.0
2018-Feb-16 19:30N 32°50' W 117°17'0 0.0
2018-Feb-16 18:56N 32°50' W 117°17'1 1.4
2018-Feb-16 18:30N 32°50' W 117°18'0 0.0
2018-Feb-16 17:59N 32°50' W 117°18'0 0.2
2018-Feb-16 17:30N 32°50' W 117°17'0 0.0
2018-Feb-16 17:00N 32°50' W 117°17'2 4.0
2018-Feb-16 16:30N 32°48' W 117°18'  
2018-Feb-10 23:34N 32°46' W 117°14'1 2.7
2018-Feb-10 23:18N 32°46' W 117°15'3 7.9
2018-Feb-10 22:59N 32°47' W 117°17'2 3.4
2018-Feb-10 22:30N 32°49' W 117°17'1 2.3
2018-Feb-10 21:57N 32°48' W 117°17'3 1.5
2018-Feb-10 20:00N 32°46' W 117°15'1 1.9
2018-Feb-10 19:30N 32°45' W 117°16'3 6.8
2018-Feb-10 19:00N 32°49' W 117°17'3 3.7
2018-Feb-10 18:18N 32°46' W 117°16'  
2018-Feb-07 21:52N 32°46' W 117°15'3 9.1
2018-Feb-07 21:31N 32°45' W 117°19'  

Dump ship's entire track history